Impacts TAF Board
For situational awareness. Not to be used for flight planning purposes.
IDs:

KCLT - Charlotte/Douglas In, NC, US

Issued at 1559 UTC 01 Mar 2021
Updated at 1638 UTC 01 Mar 2021
Potential Impact None Slight Moderate High
Time1552Z 01/17Z 01/18Z 01/19Z 01/20Z 01/21Z 01/22Z 01/23Z 02/00Z 02/01Z 02/02Z 02/03Z 02/04Z 02/05Z>>
Type OBS PRVL
  [TEMP]  
PRVL
  [TEMP]  
PRVL PRVL PRVL PRVL PRVL PRVL PRVL PRVL PRVL PRVL PRVL
VIS 10 >6
  [6]  
>6
  [6]  
>6 >6 >6 >6 >6 >6 >6 >6 >6 >6 >6
CIG 90 90
  [70]  
90
  [70]  
80 80 80 80 80 80 250 250 250 250 250
Cover OVC OVC
  [BKN]  
OVC
  [BKN]  
BKN BKN BKN BKN BKN BKN BKN BKN BKN BKN BKN
FltCat VFR VFR
  [VFR]  
VFR
  [VFR]  
VFR VFR VFR VFR VFR VFR VFR VFR VFR VFR VFR
WX -- --
  [-RA BR]  
--
  [-RA BR]  
VCSH VCSH VCSH VCSH VCSH VCSH -- -- -- -- --
WDir 200 240
[VRB]
240
[VRB]
300 300 300 300 300 300 340 340 340 340 340
WSpd 5 6
  [5]  
6
  [5]  
12 12 12 12 12 12 10 10 10 10 10
WGst -- --
  [--]  
--
  [--]  
18 18 18 18 18 18 -- -- -- -- --
Raw TAF
KCLT 011559Z 0116/0218 24006KT P6SM SCT070 OVC090
  TEMPO 0116/0119 VRB05KT 6SM -RA BR BKN070
  FM011900 30012G18KT P6SM VCSH BKN080
  FM020100 34010KT P6SM BKN250
  FM020900 03007KT P6SM SCT250


Raw METAR
KCLT 011552Z 20005KT 10SM SCT070 OVC090 16/14 A2994 RMK AO2 RAE41 SLP134 P0003 T01610144
KCLT 011452Z 29004KT 4SM RA BR FEW050 OVC070 16/14 A2998 RMK AO2 RAB1354 SLP146 P0003 60016 T01610144 53034
KCLT 011352Z 22003KT 10SM OVC055 16/15 A2993 RMK AO2 RAE47 SLP130 P0002 T01560150

METAR Board
Radar Display
Forecast Discussion
For situational awareness. Not to be used for flight planning purposes.